Segundo, Colorado
Current Conditions -  °F | °C
As of 1:54 PM on Wednesday 17 Dec 2014 (Local Time) from KTAD Reporting Station
Overcast Overcast  
Wind Chill: 37°   Ceiling: 7500
Heat Index: 37°   Visibility: 10mi
Dew Point: 27°   Wind: 0mph
Humidity: 67%   Direction: NA
Pressure: 29.88"   Gusts: NA
Location:  37.1661°N, 104.486°W
Report Text: KTAD 172054Z AUTO 00000KT 10SM OVC075 03/M03 A2988 RMK AO2 SLP123 T00281028 56016
Loading
Personal Weather Stations






























Interactive Weather Map New forecast layout! Learn more

10-Day Weather Forecast

Advertisements
Track Severe Weather on mobile